Pertusola — IBER — position and weather

sailwx.info

Track history (hours):
 
Tides and Currents Weather Stations Pressure Air Temp Water Temp Dewpoint Dewpoint Depression Visibility Wind Speed Wind Dir Waves Ship Positions

Pertusola

Last reported at 2016-Jul-30 10:33 UTC. Time now 2016-Jul-30 14:55 UTC.
Position N 51°42' E 002°31'.

Length 145 m; draft 9.4 m.

Type: Ship (hazmat cat A). MMSI: 247399000.

Date/timePositionNaut miles runAvg speedWind from/ knotsBaromVisibWave heightAir tempDewpointWater temp
2016-Jul-30 10:33N 51°42' E 002°31'1515.0
2016-Jul-30 09:33N 51°30' E 002°16'1514.6
2016-Jul-30 08:33N 51°17' E 002°06'1514.8
2016-Jul-30 07:33N 51°07' E 001°48'1515.1
2016-Jul-30 06:33N 50°57' E 001°31'5412.9
2016-Jul-30 02:23N 50°24' E 000°23'1113.3
2016-Jul-30 01:33N 50°21' E 000°06'1512.8
2016-Jul-30 00:24N 50°17' W 000°16'1012.3
2016-Jul-29 23:33N 50°14' W 000°32'9012.9
2016-Jul-29 16:33N 49°50' W 002°47'1514.7
2016-Jul-29 15:33N 49°44' W 003°08'7414.3
2016-Jul-29 10:24N 49°06' W 004°45'1813.9
2016-Jul-29 09:06N 48°58' W 005°10'1313.2
2016-Jul-29 08:06N 48°51' W 005°27'6711.7
2016-Jul-29 02:25N 47°54' W 006°20'55412.0
2016-Jul-27 04:23N 39°03' W 009°59'911.2
2016-Jul-27 03:33N 38°54' W 009°59'1212.0
2016-Jul-27 02:33N 38°42' W 009°58'1212.2
2016-Jul-27 01:32N 38°30' W 009°54'1212.1
2016-Jul-27 00:31N 38°18' W 009°51'1111.8
2016-Jul-26 23:33N 38°07' W 009°48'3511.8
2016-Jul-26 20:33N 37°32' W 009°37'1212.0
2016-Jul-26 19:33N 37°21' W 009°34'1211.7
2016-Jul-26 18:33N 37°09' W 009°30'1212.2
2016-Jul-26 17:33N 36°57' W 009°27'1512.1
2016-Jul-26 16:19N 36°44' W 009°18'912.4
2016-Jul-26 15:33N 36°39' W 009°08'1313.0
2016-Jul-26 14:33N 36°36' W 008°52'1313.0
2016-Jul-26 13:33N 36°33' W 008°37'12813.7
2016-Jul-26 04:11N 35°57' W 006°05'914.9
2016-Jul-26 03:33N 35°57' W 005°53'1414.5
2016-Jul-26 02:34N 35°59' W 005°35'1211.7
2016-Jul-26 01:33N 36°02' W 005°21'20613.6
2016-Jul-25 10:28N 36°25' W 001°08'1413.2
2016-Jul-25 09:26N 36°30' W 000°52'2513.4
2016-Jul-25 07:33N 36°36' W 000°21'2613.0
2016-Jul-25 05:33N 36°41' E 000°11'1413.6
2016-Jul-25 04:33N 36°44' E 000°27'1413.6
2016-Jul-25 03:33N 36°47' E 000°44'1513.2
2016-Jul-25 02:24N 36°50' E 001°02'1212.8
2016-Jul-25 01:27N 36°53' E 001°17'1213.0
2016-Jul-25 00:32N 36°55' E 001°32'44713.1
2016-Jul-23 14:33N 37°60' E 010°49'4012.9
2016-Jul-23 11:26N 37°52' E 011°38'1213.6
2016-Jul-23 10:33N 37°46' E 011°52'1313.2
2016-Jul-23 09:33N 37°39' E 012°06'1313.1
2016-Jul-23 08:33N 37°33' E 012°21'2813.8
2016-Jul-23 06:31N 37°20' E 012°52'2913.8
2016-Jul-23 04:27N 37°08' E 013°25'1213.2
2016-Jul-23 03:34N 37°03' E 013°38'1312.8
2016-Jul-23 02:33N 36°57' E 013°52'1313.2
2016-Jul-23 01:33N 36°51' E 014°07'1413.9
2016-Jul-23 00:34N 36°45' E 014°23'1414.0
2016-Jul-22 23:33N 36°39' E 014°38'  
Track history (hours):
 
Tides and Currents Weather Stations Pressure Air Temp Water Temp Dewpoint Dewpoint Depression Visibility Wind Speed Wind Dir Waves Ship Positions

Pertusola

Last reported at 2016-Jul-30 10:33 UTC. Time now 2016-Jul-30 14:55 UTC.
Position N 51°42' E 002°31'.

Length 145 m; draft 9.4 m.

Type: Ship (hazmat cat A). MMSI: 247399000.

Date/timePositionNaut miles runAvg speedWind from/ knotsBaromVisibWave heightAir tempDewpointWater temp
2016-Jul-30 10:33N 51°42' E 002°31'1515.0
2016-Jul-30 09:33N 51°30' E 002°16'1514.6
2016-Jul-30 08:33N 51°17' E 002°06'1514.8
2016-Jul-30 07:33N 51°07' E 001°48'1515.1
2016-Jul-30 06:33N 50°57' E 001°31'5412.9
2016-Jul-30 02:23N 50°24' E 000°23'1113.3
2016-Jul-30 01:33N 50°21' E 000°06'1512.8
2016-Jul-30 00:24N 50°17' W 000°16'1012.3
2016-Jul-29 23:33N 50°14' W 000°32'9012.9
2016-Jul-29 16:33N 49°50' W 002°47'1514.7
2016-Jul-29 15:33N 49°44' W 003°08'7414.3
2016-Jul-29 10:24N 49°06' W 004°45'1813.9
2016-Jul-29 09:06N 48°58' W 005°10'1313.2
2016-Jul-29 08:06N 48°51' W 005°27'6711.7
2016-Jul-29 02:25N 47°54' W 006°20'55412.0
2016-Jul-27 04:23N 39°03' W 009°59'911.2
2016-Jul-27 03:33N 38°54' W 009°59'1212.0
2016-Jul-27 02:33N 38°42' W 009°58'1212.2
2016-Jul-27 01:32N 38°30' W 009°54'1212.1
2016-Jul-27 00:31N 38°18' W 009°51'1111.8
2016-Jul-26 23:33N 38°07' W 009°48'3511.8
2016-Jul-26 20:33N 37°32' W 009°37'1212.0
2016-Jul-26 19:33N 37°21' W 009°34'1211.7
2016-Jul-26 18:33N 37°09' W 009°30'1212.2
2016-Jul-26 17:33N 36°57' W 009°27'1512.1
2016-Jul-26 16:19N 36°44' W 009°18'912.4
2016-Jul-26 15:33N 36°39' W 009°08'1313.0
2016-Jul-26 14:33N 36°36' W 008°52'1313.0
2016-Jul-26 13:33N 36°33' W 008°37'12813.7
2016-Jul-26 04:11N 35°57' W 006°05'914.9
2016-Jul-26 03:33N 35°57' W 005°53'1414.5
2016-Jul-26 02:34N 35°59' W 005°35'1211.7
2016-Jul-26 01:33N 36°02' W 005°21'20613.6
2016-Jul-25 10:28N 36°25' W 001°08'1413.2
2016-Jul-25 09:26N 36°30' W 000°52'2513.4
2016-Jul-25 07:33N 36°36' W 000°21'2613.0
2016-Jul-25 05:33N 36°41' E 000°11'1413.6
2016-Jul-25 04:33N 36°44' E 000°27'1413.6
2016-Jul-25 03:33N 36°47' E 000°44'1513.2
2016-Jul-25 02:24N 36°50' E 001°02'1212.8
2016-Jul-25 01:27N 36°53' E 001°17'1213.0
2016-Jul-25 00:32N 36°55' E 001°32'44713.1
2016-Jul-23 14:33N 37°60' E 010°49'4012.9
2016-Jul-23 11:26N 37°52' E 011°38'1213.6
2016-Jul-23 10:33N 37°46' E 011°52'1313.2
2016-Jul-23 09:33N 37°39' E 012°06'1313.1
2016-Jul-23 08:33N 37°33' E 012°21'2813.8
2016-Jul-23 06:31N 37°20' E 012°52'2913.8
2016-Jul-23 04:27N 37°08' E 013°25'1213.2
2016-Jul-23 03:34N 37°03' E 013°38'1312.8
2016-Jul-23 02:33N 36°57' E 013°52'1313.2
2016-Jul-23 01:33N 36°51' E 014°07'1413.9
2016-Jul-23 00:34N 36°45' E 014°23'1414.0
2016-Jul-22 23:33N 36°39' E 014°38'  

Dump ship's entire track history